Aérodrome :
LOGIN :

S'inscrire | Disclaimer

   EN    FR    IT 

 










Légende :    VFR   VFR Marginal   IFR   IFR Intensif   IFR Très Intensif
Visi : 
Plafond : 
>= 8 km
>= 3000ft
5 à 8 km
1000 à 3000 ft
1500m à 5 km
500 à 1000 ft
800 à 1500m
200 à 500 ft
< 800m
< 200 ft
Symboles :   Orages  Brouillard  Fortes neiges  Fortes précipitations  Vent > 20 kt
SIGMETs :   Divers  Orages  Givrage  Turbulence  Onde Orograph.  Cendres Volcan.







- Altitude de l'aérodrome : 309 ft
- Code IATA : FNI
- Voir les cartes d'approche


LFTW - Nîmes Garons

DERNIER METAR :
  • 221430Z AUTO 29004KT 260V320 CAVOK 08/M05 Q1006 NOSIG

METARs EXPIRÉS :
  • 221400Z AUTO 31005KT 270V350 CAVOK 09/M05 Q1006 NOSIG
  • 221330Z AUTO 32003KT 240V010 CAVOK 08/M04 Q1006 NOSIG
  • 221300Z AUTO 32006KT 260V360 CAVOK 08/M03 Q1007 NOSIG
  • 221230Z AUTO 33005KT 290V020 CAVOK 08/M03 Q1008 NOSIG
  • 221200Z AUTO 36007KT 310V030 CAVOK 07/M04 Q1009 NOSIG

TAF TAF LFTW
Valide du 22 à 15h jusqu'au 23 à 15h UTC


221400Z 2215/2315 33006KT CAVOK
PROB30
TEMPO 2219/2222 -RA BKN014
BECMG 2309/2311 BKN014
PROB30
TEMPO 2309/2313 -RA BKN010
Pas de NOTAMs connus pour ce terrain.



MET'MAP, la Météo Aéronautique d'un coup d'oeil ! - Copyright ORBIFLY Décembre 2007 - Disclaimer

ORBIFLY MET'MAP TEAM :

Programmation & Développement : Alexandra Zaïnal
Conception & Développement : Baudouin d'Aumeries
Co-Programmation & Développement : Marc-Olivier Méhu
Soutien technique & logistique : Manuel Goepfert

Contact : metmap@orbifly.com




SOURCES & CREDITS :

   NOAA